createdAt,value
2018-09-20T00:00:51.453Z,9.70
2018-09-20T00:03:19.965Z,11.17
2018-09-20T00:05:48.477Z,9.77
2018-09-20T00:08:17.028Z,11.07
2018-09-20T00:10:45.555Z,10.03
2018-09-20T00:13:14.079Z,9.50
2018-09-20T00:15:42.597Z,9.43
2018-09-20T00:18:11.115Z,9.60
2018-09-20T00:20:39.640Z,10.23
2018-09-20T00:23:08.148Z,8.67
2018-09-20T00:25:36.679Z,10.47
2018-09-20T00:28:05.209Z,10.07
2018-09-20T00:30:33.748Z,8.80
2018-09-20T00:33:02.286Z,10.70
2018-09-20T00:35:30.808Z,9.23
2018-09-20T00:37:59.320Z,8.63
2018-09-20T00:40:27.864Z,8.93
2018-09-20T00:42:56.382Z,11.00
2018-09-20T00:45:24.920Z,7.10
2018-09-20T00:47:53.424Z,9.80
2018-09-20T00:50:21.984Z,10.40
2018-09-20T00:52:50.531Z,10.23
2018-09-20T00:55:19.040Z,9.50
2018-09-20T00:57:47.540Z,8.20
2018-09-20T01:00:16.068Z,10.73
2018-09-20T01:02:44.616Z,8.20
2018-09-20T01:05:13.456Z,10.57
2018-09-20T01:07:41.968Z,9.47
2018-09-20T01:10:10.496Z,9.70
2018-09-20T01:12:38.992Z,9.67
2018-09-20T01:15:08.930Z,8.13
2018-09-20T01:17:37.591Z,9.27
2018-09-20T01:20:06.296Z,8.83
2018-09-20T01:22:34.800Z,10.50
2018-09-20T01:25:03.432Z,9.43
2018-09-20T01:27:31.969Z,9.67
2018-09-20T01:30:00.496Z,9.33
2018-09-20T01:32:29.018Z,8.53
2018-09-20T01:34:57.482Z,8.60
2018-09-20T01:37:26.017Z,8.03
2018-09-20T01:39:54.494Z,8.77
2018-09-20T01:42:22.964Z,10.30
2018-09-20T01:44:51.455Z,8.93
2018-09-20T01:47:19.928Z,10.30
2018-09-20T01:49:48.387Z,9.50
2018-09-20T01:52:16.884Z,9.90
2018-09-20T01:54:45.339Z,10.47
2018-09-20T01:57:13.833Z,9.63
2018-09-20T01:59:42.351Z,10.00
2018-09-20T02:02:10.800Z,8.50
2018-09-20T02:04:39.270Z,9.80
2018-09-20T02:07:07.780Z,10.43
2018-09-20T02:09:36.270Z,8.73
2018-09-20T02:12:04.750Z,8.73
2018-09-20T02:14:33.254Z,9.07
2018-09-20T02:17:01.754Z,8.83
2018-09-20T02:19:30.558Z,10.10
2018-09-20T02:21:59.050Z,9.17
2018-09-20T02:24:27.558Z,8.60
2018-09-20T02:26:56.028Z,9.93
2018-09-20T02:29:24.513Z,8.60
2018-09-20T02:31:52.977Z,8.30
2018-09-20T02:34:21.466Z,8.67
2018-09-20T02:36:50.033Z,9.63
2018-09-20T02:39:18.500Z,9.17
2018-09-20T02:41:47.001Z,9.40
2018-09-20T02:44:15.478Z,8.90
2018-09-20T02:46:43.934Z,8.43
2018-09-20T02:49:12.426Z,8.53
2018-09-20T02:51:40.903Z,8.10
2018-09-20T02:54:09.463Z,6.97
2018-09-20T02:56:38.311Z,7.77
2018-09-20T02:59:06.861Z,9.37
2018-09-20T03:01:35.325Z,8.40
2018-09-20T03:04:03.839Z,9.00
2018-09-20T03:06:32.339Z,9.20
2018-09-20T03:09:00.807Z,8.57
2018-09-20T03:11:29.282Z,8.60
2018-09-20T03:13:57.809Z,9.20
2018-09-20T03:16:26.297Z,9.80
2018-09-20T03:18:54.781Z,6.90
2018-09-20T03:21:23.273Z,7.70
2018-09-20T03:23:51.773Z,9.93
2018-09-20T03:26:20.284Z,7.00
2018-09-20T03:28:48.739Z,8.50
2018-09-20T03:31:17.220Z,7.33
2018-09-20T03:33:45.691Z,6.33
2018-09-20T03:36:14.167Z,9.00
2018-09-20T03:38:42.727Z,7.93
2018-09-20T03:41:11.208Z,8.17
2018-09-20T03:43:39.942Z,6.43
2018-09-20T03:46:08.434Z,8.40
2018-09-20T03:48:36.918Z,8.30
2018-09-20T03:51:05.378Z,7.27
2018-09-20T03:53:33.866Z,7.27
2018-09-20T03:56:02.338Z,9.17
2018-09-20T03:58:30.824Z,8.97
2018-09-20T04:00:59.590Z,7.37
2018-09-20T04:03:28.060Z,8.63
2018-09-20T04:05:56.561Z,8.53
2018-09-20T04:08:25.051Z,7.97
2018-09-20T04:11:27.617Z,7.57
2018-09-20T04:13:56.120Z,8.77
2018-09-20T04:16:24.596Z,8.30
2018-09-20T04:18:53.120Z,9.10
2018-09-20T04:21:28.951Z,8.67
2018-09-20T04:23:57.447Z,7.03
2018-09-20T04:26:25.911Z,8.00
2018-09-20T04:28:54.444Z,8.47
2018-09-20T04:31:22.971Z,8.40
2018-09-20T04:33:51.453Z,8.80
2018-09-20T04:36:20.115Z,6.33
2018-09-20T04:38:48.588Z,7.93
2018-09-20T04:41:17.102Z,6.57
2018-09-20T04:43:45.856Z,7.93
2018-09-20T04:46:14.338Z,7.70
2018-09-20T04:48:42.871Z,7.83
2018-09-20T04:51:11.355Z,7.80
2018-09-20T04:53:39.815Z,7.73
2018-09-20T04:56:08.299Z,7.33
2018-09-20T04:58:37.050Z,7.30
2018-09-20T05:01:05.565Z,7.90
2018-09-20T05:03:34.034Z,7.47
2018-09-20T05:06:02.841Z,7.63
2018-09-20T05:08:31.320Z,6.97
2018-09-20T05:10:59.792Z,7.27
2018-09-20T05:13:28.292Z,8.13
2018-09-20T05:15:56.785Z,6.57
2018-09-20T05:18:25.302Z,6.30
2018-09-20T05:20:53.856Z,6.90
2018-09-20T05:23:22.371Z,6.60
2018-09-20T05:25:50.884Z,6.83
2018-09-20T05:28:19.377Z,8.57
2018-09-20T05:30:48.347Z,8.23
2018-09-20T05:33:16.932Z,8.30
2018-09-20T05:35:45.356Z,7.77
2018-09-20T05:38:13.874Z,6.43
2018-09-20T05:40:42.363Z,6.90
2018-09-20T05:43:10.831Z,7.60
2018-09-20T05:45:39.395Z,8.30
2018-09-20T05:48:07.887Z,7.90
2018-09-20T05:50:36.544Z,8.00
2018-09-20T05:53:04.995Z,8.00
2018-09-20T05:55:33.477Z,7.70
2018-09-20T05:58:01.991Z,8.40
2018-09-20T06:00:30.508Z,8.03
2018-09-20T06:02:59.027Z,6.40
2018-09-20T06:05:27.505Z,6.90
2018-09-20T06:07:55.967Z,8.20
2018-09-20T06:10:24.843Z,7.97
2018-09-20T06:12:53.327Z,6.70
2018-09-20T06:15:21.823Z,8.00
2018-09-20T06:17:50.287Z,6.57
2018-09-20T06:20:18.795Z,7.83
2018-09-20T06:22:47.281Z,7.80
2018-09-20T06:25:15.730Z,7.23
2018-09-20T06:27:44.305Z,7.50
2018-09-20T06:30:12.748Z,7.07
2018-09-20T06:32:41.373Z,7.33
2018-09-20T06:35:09.919Z,7.20
2018-09-20T06:37:38.407Z,7.87
2018-09-20T06:40:06.900Z,6.73
2018-09-20T06:42:35.457Z,6.10
2018-09-20T06:45:04.015Z,6.93
2018-09-20T06:47:32.503Z,5.67
2018-09-20T06:50:00.999Z,6.80
2018-09-20T06:52:29.469Z,6.40
2018-09-20T06:54:57.947Z,5.60
2018-09-20T06:57:27.130Z,6.00
2018-09-20T06:59:55.630Z,5.70
2018-09-20T07:02:24.095Z,6.60
2018-09-20T07:04:52.601Z,5.10
2018-09-20T07:07:21.710Z,4.87
2018-09-20T07:09:50.227Z,5.43
2018-09-20T07:12:18.756Z,6.13
2018-09-20T07:14:47.242Z,5.87
2018-09-20T07:17:15.717Z,5.10
2018-09-20T07:19:44.507Z,5.77
2018-09-20T07:22:12.985Z,5.27
2018-09-20T07:24:41.489Z,5.37
2018-09-20T07:27:10.155Z,5.40
2018-09-20T07:29:38.660Z,5.27
2018-09-20T07:32:07.154Z,5.13
2018-09-20T07:34:35.677Z,4.87
2018-09-20T07:37:04.189Z,5.37
2018-09-20T07:39:32.647Z,5.60
2018-09-20T07:42:01.428Z,5.40
2018-09-20T07:44:29.896Z,5.63
2018-09-20T07:46:58.367Z,4.90
2018-09-20T07:49:26.885Z,4.93
2018-09-20T07:51:55.380Z,5.03
2018-09-20T07:54:23.838Z,5.03
2018-09-20T07:56:52.354Z,5.33
2018-09-20T07:59:20.817Z,5.83
2018-09-20T08:01:49.341Z,5.13
2018-09-20T08:04:17.815Z,5.00
2018-09-20T08:06:46.322Z,5.70
2018-09-20T08:09:14.828Z,4.57
2018-09-20T08:11:43.593Z,5.40
2018-09-20T08:14:12.068Z,5.07
2018-09-20T08:16:40.535Z,4.80
2018-09-20T08:19:09.039Z,4.27
2018-09-20T08:21:38.625Z,5.20
2018-09-20T08:24:07.285Z,4.70
2018-09-20T08:26:35.776Z,4.10
2018-09-20T08:29:04.277Z,4.63
2018-09-20T08:31:32.742Z,5.03
2018-09-20T08:34:01.239Z,5.10
2018-09-20T08:36:29.756Z,6.00
2018-09-20T08:38:58.226Z,5.17
2018-09-20T08:41:26.754Z,5.13
2018-09-20T08:43:55.406Z,4.97
2018-09-20T08:46:23.910Z,3.83
2018-09-20T08:48:52.412Z,5.03
2018-09-20T08:51:20.881Z,5.30
2018-09-20T08:53:49.342Z,4.93
2018-09-20T08:56:17.842Z,4.23
2018-09-20T08:58:46.382Z,3.73
2018-09-20T09:01:14.877Z,5.93
2018-09-20T09:03:43.395Z,4.83
2018-09-20T09:06:11.893Z,5.00
2018-09-20T09:08:40.384Z,4.57
2018-09-20T09:11:08.878Z,4.30
2018-09-20T09:13:37.354Z,4.10
2018-09-20T09:16:05.946Z,4.83
2018-09-20T09:18:34.423Z,4.20
2018-09-20T09:21:02.905Z,4.47
2018-09-20T09:23:31.376Z,4.77
2018-09-20T09:25:59.897Z,4.33
2018-09-20T09:28:28.434Z,4.80
2018-09-20T09:30:56.867Z,3.80
2018-09-20T09:33:25.699Z,4.60
2018-09-20T09:35:54.170Z,4.00
2018-09-20T09:38:22.642Z,3.87
2018-09-20T09:40:51.162Z,3.80
2018-09-20T09:43:19.957Z,5.20
2018-09-20T09:45:48.436Z,4.43
2018-09-20T09:48:16.942Z,4.80
2018-09-20T09:50:45.447Z,4.80
2018-09-20T09:53:13.928Z,4.30
2018-09-20T09:55:42.412Z,4.57
2018-09-20T09:58:10.891Z,3.93
2018-09-20T10:00:41.169Z,4.00
2018-09-20T10:03:09.649Z,4.83
2018-09-20T10:05:38.154Z,4.47
2018-09-20T10:08:06.761Z,4.60
2018-09-20T10:10:35.245Z,4.37
2018-09-20T10:13:04.054Z,5.00
2018-09-20T10:15:32.520Z,4.60
2018-09-20T10:18:01.033Z,4.73
2018-09-20T10:20:29.488Z,5.03
2018-09-20T10:22:57.978Z,4.33
2018-09-20T10:25:26.464Z,3.40
2018-09-20T10:27:54.931Z,4.67
2018-09-20T10:30:23.448Z,4.87
2018-09-20T10:32:51.953Z,4.80
2018-09-20T10:35:20.414Z,5.03
2018-09-20T10:37:49.110Z,5.10
2018-09-20T10:40:17.587Z,4.60
2018-09-20T10:42:46.065Z,3.70
2018-09-20T10:45:14.533Z,4.40
2018-09-20T10:47:43.021Z,4.90
2018-09-20T10:50:11.528Z,4.57
2018-09-20T10:52:40.006Z,5.27
2018-09-20T10:55:08.537Z,4.63
2018-09-20T10:57:37.042Z,5.17
2018-09-20T11:00:05.863Z,4.40
2018-09-20T11:02:34.352Z,4.00
2018-09-20T11:05:02.842Z,5.57
2018-09-20T11:07:31.325Z,4.87
2018-09-20T11:09:59.831Z,5.00
2018-09-20T11:12:28.338Z,4.33
2018-09-20T11:14:56.791Z,5.20
2018-09-20T11:17:25.278Z,4.90
2018-09-20T11:19:53.752Z,5.33
2018-09-20T11:22:22.237Z,5.07
2018-09-20T11:24:50.723Z,4.23
2018-09-20T11:27:19.206Z,4.70
2018-09-20T11:29:47.667Z,4.33
2018-09-20T11:32:16.199Z,4.87
2018-09-20T11:34:44.673Z,4.70
2018-09-20T11:37:13.210Z,4.87
2018-09-20T11:39:41.718Z,4.97
2018-09-20T11:42:10.205Z,5.00
2018-09-20T11:44:38.672Z,5.20
2018-09-20T11:47:07.328Z,4.70
2018-09-20T11:49:35.848Z,4.17
2018-09-20T11:52:04.346Z,4.10
2018-09-20T11:54:33.149Z,4.60
2018-09-20T11:57:01.620Z,4.40
2018-09-20T11:59:30.166Z,4.83
2018-09-20T12:01:58.716Z,4.50
2018-09-20T12:04:27.166Z,4.10
2018-09-20T12:06:55.631Z,4.67
2018-09-20T12:09:24.131Z,4.70
2018-09-20T12:11:52.607Z,5.03
2018-09-20T12:14:21.482Z,4.73
2018-09-20T12:16:50.019Z,4.27
2018-09-20T12:19:18.491Z,4.63
2018-09-20T12:21:46.955Z,4.97
2018-09-20T12:24:15.446Z,4.77
2018-09-20T12:26:43.922Z,4.20
2018-09-20T12:29:12.399Z,3.30
2018-09-20T12:31:40.920Z,4.50
2018-09-20T12:34:09.383Z,4.73
2018-09-20T12:36:38.174Z,4.10
2018-09-20T12:39:09.660Z,5.23
2018-09-20T12:41:38.187Z,4.57
2018-09-20T12:44:06.824Z,3.50
2018-09-20T12:46:35.371Z,4.10
2018-09-20T12:49:04.075Z,4.50
2018-09-20T12:51:32.870Z,4.60
2018-09-20T12:54:01.469Z,4.13
2018-09-20T12:56:30.003Z,4.63
2018-09-20T12:58:58.524Z,5.23
2018-09-20T13:01:27.047Z,4.50
2018-09-20T13:03:55.520Z,4.40
2018-09-20T13:06:23.961Z,4.50
2018-09-20T13:08:52.473Z,4.07
2018-09-20T13:11:21.002Z,4.17
2018-09-20T13:13:49.459Z,4.57
2018-09-20T13:16:17.973Z,4.40
2018-09-20T13:18:46.422Z,4.30
2018-09-20T13:21:15.247Z,4.43
2018-09-20T13:23:43.783Z,3.90
2018-09-20T13:26:12.243Z,4.03
2018-09-20T13:28:40.720Z,4.07
2018-09-20T13:31:09.287Z,4.73
2018-09-20T13:33:37.760Z,4.63
2018-09-20T13:36:06.282Z,3.63
2018-09-20T13:38:35.150Z,4.23
2018-09-20T13:41:03.623Z,4.30
2018-09-20T13:43:32.171Z,6.80
2018-09-20T13:46:00.722Z,3.87
2018-09-20T13:48:29.206Z,4.60
2018-09-20T13:50:57.704Z,4.93
2018-09-20T13:53:26.184Z,4.20
2018-09-20T13:55:54.658Z,3.87
2018-09-20T13:58:23.136Z,4.57
2018-09-20T14:00:51.661Z,4.60
2018-09-20T14:03:20.129Z,4.23
2018-09-20T14:05:48.633Z,3.73
2018-09-20T14:08:17.079Z,3.40
2018-09-20T14:10:45.533Z,4.37
2018-09-20T14:13:14.010Z,4.17
2018-09-20T14:15:42.509Z,4.20
2018-09-20T14:18:10.995Z,4.50
2018-09-20T14:20:39.494Z,4.17
2018-09-20T14:23:07.990Z,4.40
2018-09-20T14:25:36.644Z,4.80
2018-09-20T14:28:05.114Z,4.73
2018-09-20T14:30:33.646Z,4.37
2018-09-20T14:33:02.210Z,4.53
2018-09-20T14:35:30.689Z,4.27
2018-09-20T14:37:59.177Z,4.47
2018-09-20T14:40:27.666Z,4.20
2018-09-20T14:42:56.154Z,4.10
2018-09-20T14:45:24.648Z,4.17
2018-09-20T14:47:53.134Z,3.70
2018-09-20T14:50:21.609Z,3.90
2018-09-20T14:52:50.095Z,3.80
2018-09-20T14:55:18.584Z,4.37
2018-09-20T14:57:47.027Z,4.63
2018-09-20T15:00:15.530Z,3.90
2018-09-20T15:02:44.018Z,4.60
2018-09-20T15:05:12.495Z,4.23
2018-09-20T15:07:40.962Z,4.10
2018-09-20T15:10:09.443Z,4.20
2018-09-20T15:12:37.922Z,4.20
2018-09-20T15:15:06.576Z,4.30
2018-09-20T15:17:35.047Z,3.67
2018-09-20T15:20:03.538Z,4.00
2018-09-20T15:22:32.015Z,3.73
2018-09-20T15:25:00.473Z,4.13
2018-09-20T15:27:28.975Z,4.17
2018-09-20T15:29:57.470Z,3.87
2018-09-20T15:32:26.273Z,4.00
2018-09-20T15:34:54.955Z,3.90
2018-09-20T15:37:23.519Z,3.43
2018-09-20T15:39:51.984Z,3.33
2018-09-20T15:42:20.482Z,3.80
2018-09-20T15:44:48.964Z,4.33
2018-09-20T15:47:17.439Z,3.77
2018-09-20T15:49:45.925Z,3.90
2018-09-20T15:52:14.407Z,3.80
2018-09-20T15:54:42.883Z,3.10
2018-09-20T15:57:11.363Z,3.90
2018-09-20T15:59:39.867Z,4.60
2018-09-20T16:02:08.537Z,3.30
2018-09-20T16:04:37.024Z,3.97
2018-09-20T16:07:05.624Z,3.97
2018-09-20T16:09:34.207Z,4.00
2018-09-20T16:12:02.788Z,4.33
2018-09-20T16:14:31.349Z,3.93
2018-09-20T16:16:59.848Z,4.13
2018-09-20T16:19:28.352Z,3.60
2018-09-20T16:21:57.432Z,4.00
2018-09-20T16:24:26.011Z,4.60
2018-09-20T16:26:54.608Z,3.97
2018-09-20T16:29:37.452Z,4.30
2018-09-20T16:32:18.699Z,3.83
2018-09-20T16:38:02.556Z,3.50
2018-09-20T16:40:34.918Z,3.70
2018-09-20T16:43:03.475Z,4.00
2018-09-20T16:45:32.156Z,3.97
2018-09-20T16:48:00.641Z,3.33
2018-09-20T16:50:29.568Z,4.37
2018-09-20T16:52:58.129Z,3.80
2018-09-20T16:55:26.600Z,3.80
2018-09-20T16:57:55.125Z,4.77
2018-09-20T17:00:23.690Z,3.80
2018-09-20T17:02:52.194Z,3.80
2018-09-20T17:05:20.677Z,3.83
2018-09-20T17:07:49.297Z,4.50
2018-09-20T17:10:17.807Z,4.50
2018-09-20T17:12:46.308Z,4.00
2018-09-20T17:15:14.908Z,4.10
2018-09-20T17:17:43.433Z,5.23
2018-09-20T17:20:11.943Z,4.33
2018-09-20T17:22:40.492Z,5.40
2018-09-20T17:25:09.005Z,6.57
2018-09-20T17:27:37.488Z,5.50
2018-09-20T17:30:06.274Z,5.27
2018-09-20T17:32:35.012Z,3.90
2018-09-20T17:35:03.585Z,5.37
2018-09-20T17:37:33.729Z,4.30
2018-09-20T17:40:03.096Z,4.63
2018-09-20T17:42:33.693Z,4.50
2018-09-20T17:45:02.208Z,5.33
2018-09-20T17:47:30.781Z,5.23
2018-09-20T17:49:59.279Z,5.20
2018-09-20T17:52:28.861Z,4.90
2018-09-20T17:54:58.389Z,5.00
2018-09-20T17:57:28.012Z,5.30
2018-09-20T17:59:56.552Z,4.13
2018-09-20T18:02:25.064Z,4.90
2018-09-20T18:04:53.593Z,5.90
2018-09-20T18:07:22.100Z,4.53
2018-09-20T18:09:50.652Z,5.70
2018-09-20T18:12:19.199Z,5.40
2018-09-20T18:14:47.728Z,4.73
2018-09-20T18:17:16.217Z,5.03
2018-09-20T18:19:44.746Z,5.63
2018-09-20T18:22:13.242Z,5.10
2018-09-20T18:24:41.778Z,6.47
2018-09-20T18:27:10.303Z,5.47
2018-09-20T18:29:38.836Z,4.20
2018-09-20T18:32:07.341Z,5.70
2018-09-20T18:34:36.065Z,5.33
2018-09-20T18:37:04.629Z,5.27
2018-09-20T18:39:33.141Z,5.33
2018-09-20T18:42:01.651Z,4.70
2018-09-20T18:44:30.188Z,5.73
2018-09-20T18:46:58.711Z,5.53
2018-09-20T18:49:27.233Z,5.20
2018-09-20T18:51:55.735Z,4.90
2018-09-20T18:54:24.227Z,5.33
2018-09-20T18:56:52.759Z,5.83
2018-09-20T18:59:21.275Z,5.17
2018-09-20T19:01:49.816Z,5.40
2018-09-20T19:04:18.329Z,5.63
2018-09-20T19:06:46.875Z,5.07
2018-09-20T19:09:15.396Z,4.77
2018-09-20T19:11:43.889Z,6.23
2018-09-20T19:14:12.420Z,6.20
2018-09-20T19:16:41.248Z,5.43
2018-09-20T19:19:09.756Z,5.50
2018-09-20T19:21:38.289Z,5.57
2018-09-20T19:24:06.816Z,5.53
2018-09-20T19:26:35.351Z,5.57
2018-09-20T19:29:04.100Z,6.13
2018-09-20T19:31:32.605Z,6.57
2018-09-20T19:34:01.152Z,3.93
2018-09-20T19:36:29.752Z,6.20
2018-09-20T19:38:58.454Z,6.17
2018-09-20T19:41:26.889Z,6.27
2018-09-20T19:43:55.412Z,5.53
2018-09-20T19:46:23.913Z,5.37
2018-09-20T19:48:52.403Z,5.47
2018-09-20T19:51:20.948Z,6.23
2018-09-20T19:53:49.483Z,6.20
2018-09-20T19:56:18.020Z,5.83
2018-09-20T19:58:46.647Z,6.73
2018-09-20T20:01:15.163Z,6.63
2018-09-20T20:03:43.710Z,5.87
2018-09-20T20:06:12.255Z,6.27
2018-09-20T20:08:40.807Z,5.83
2018-09-20T20:11:09.417Z,5.97
2018-09-20T20:13:37.917Z,5.63
2018-09-20T20:16:06.605Z,6.57
2018-09-20T20:18:35.120Z,5.40
2018-09-20T20:21:03.629Z,5.47
2018-09-20T20:23:32.468Z,5.57
2018-09-20T20:26:01.348Z,6.40
2018-09-20T20:28:30.167Z,6.73
2018-09-20T20:30:59.040Z,6.20
2018-09-20T20:33:27.865Z,6.50
2018-09-20T20:35:56.412Z,6.33
2018-09-20T20:38:25.203Z,6.30
2018-09-20T20:40:53.753Z,5.87
2018-09-20T20:43:22.286Z,6.70
2018-09-20T20:45:50.803Z,7.27
2018-09-20T20:48:19.351Z,6.63
2018-09-20T20:50:47.891Z,6.50
2018-09-20T20:53:16.425Z,5.87
2018-09-20T20:55:44.947Z,5.97
2018-09-20T20:58:13.475Z,5.93
2018-09-20T21:00:41.973Z,7.13
2018-09-20T21:03:10.484Z,6.67
2018-09-20T21:05:38.988Z,7.23
2018-09-20T21:08:07.683Z,6.57
2018-09-20T21:10:36.194Z,6.67
2018-09-20T21:13:04.733Z,6.10
2018-09-20T21:15:33.221Z,6.87
2018-09-20T21:18:01.729Z,7.57
2018-09-20T21:20:30.287Z,6.60
2018-09-20T21:22:58.813Z,5.83
2018-09-20T21:25:27.316Z,7.03
2018-09-20T21:27:55.846Z,6.17
2018-09-20T21:30:24.439Z,6.83
2018-09-20T21:32:52.913Z,6.50
2018-09-20T21:35:21.428Z,6.47
2018-09-20T21:37:50.203Z,6.57
2018-09-20T21:40:18.736Z,7.60
2018-09-20T21:42:47.261Z,6.63
2018-09-20T21:45:15.785Z,7.53
2018-09-20T21:47:44.307Z,6.27
2018-09-20T21:50:12.860Z,7.73
2018-09-20T21:52:41.349Z,6.23
2018-09-20T21:55:09.871Z,7.67
2018-09-20T21:57:38.396Z,5.73
2018-09-20T22:00:07.551Z,7.83
2018-09-20T22:02:41.341Z,7.00
2018-09-20T22:05:09.839Z,6.50
2018-09-20T22:07:38.336Z,6.60
2018-09-20T22:10:06.941Z,6.27
2018-09-20T22:12:35.455Z,8.03
2018-09-20T22:15:04.020Z,5.90
2018-09-20T22:17:32.508Z,7.60
2018-09-20T22:20:01.069Z,7.77
2018-09-20T22:22:29.580Z,7.73
2018-09-20T22:24:58.123Z,6.80
2018-09-20T22:27:26.644Z,7.30
2018-09-20T22:29:55.180Z,7.13
2018-09-20T22:32:23.695Z,7.57
2018-09-20T22:34:52.197Z,7.30
2018-09-20T22:37:20.733Z,7.70
2018-09-20T22:39:49.319Z,7.10
2018-09-20T22:42:17.790Z,7.10
2018-09-20T22:44:46.322Z,6.70
2018-09-20T22:47:14.802Z,7.00
2018-09-20T22:49:43.308Z,6.07
2018-09-20T22:52:11.838Z,7.33
2018-09-20T22:54:40.360Z,7.83
2018-09-20T22:57:08.888Z,6.97
2018-09-20T22:59:37.416Z,6.33
2018-09-20T23:02:05.921Z,7.37
2018-09-20T23:04:34.424Z,7.33
2018-09-20T23:07:03.009Z,7.97
2018-09-20T23:09:31.520Z,7.80
2018-09-20T23:12:00.147Z,8.87
2018-09-20T23:14:28.686Z,7.70
2018-09-20T23:16:57.315Z,7.80
2018-09-20T23:19:25.804Z,6.87
2018-09-20T23:21:54.356Z,6.50
2018-09-20T23:24:22.914Z,6.63
2018-09-20T23:26:51.448Z,6.20
2018-09-20T23:29:19.978Z,7.20
2018-09-20T23:31:48.534Z,6.47
2018-09-20T23:34:17.032Z,7.57
2018-09-20T23:36:45.848Z,6.90
2018-09-20T23:39:14.560Z,7.00
2018-09-20T23:41:43.091Z,7.50
2018-09-20T23:44:11.628Z,5.87
2018-09-20T23:46:40.151Z,7.33
2018-09-20T23:49:08.667Z,6.53
2018-09-20T23:51:37.171Z,7.40
2018-09-20T23:54:06.017Z,6.97
2018-09-20T23:56:34.543Z,7.00
2018-09-20T23:59:03.077Z,7.33
